sensor_id;sensor_type;location;lat;lon;timestamp;pressure;altitude;pressure_sealevel;temperature;humidity
54900;BME280;40801;41.924;25.562;2024-02-21T00:00:35;100277.44;;;7.56;78.37
54900;BME280;40801;41.924;25.562;2024-02-21T00:03:03;100284.44;;;7.62;77.42
54900;BME280;40801;41.924;25.562;2024-02-21T00:05:29;100284.69;;;7.60;78.36
54900;BME280;40801;41.924;25.562;2024-02-21T00:07:55;100283.63;;;7.61;78.12
54900;BME280;40801;41.924;25.562;2024-02-21T00:10:20;100292.69;;;7.50;78.91
54900;BME280;40801;41.924;25.562;2024-02-21T00:12:45;100287.84;;;7.47;78.38
54900;BME280;40801;41.924;25.562;2024-02-21T00:15:11;100288.41;;;7.49;78.76
54900;BME280;40801;41.924;25.562;2024-02-21T00:17:37;100287.66;;;7.59;77.72
54900;BME280;40801;41.924;25.562;2024-02-21T00:20:02;100298.78;;;7.30;79.54
54900;BME280;40801;41.924;25.562;2024-02-21T00:22:28;100299.34;;;7.37;79.03
54900;BME280;40801;41.924;25.562;2024-02-21T00:24:56;100294.28;;;7.41;78.86
54900;BME280;40801;41.924;25.562;2024-02-21T00:27:23;100294.03;;;7.47;77.81
54900;BME280;40801;41.924;25.562;2024-02-21T00:29:48;100288.13;;;7.51;77.56
54900;BME280;40801;41.924;25.562;2024-02-21T00:32:14;100287.31;;;7.50;78.32
54900;BME280;40801;41.924;25.562;2024-02-21T00:34:39;100289.19;;;7.50;78.44
54900;BME280;40801;41.924;25.562;2024-02-21T00:37:05;100288.66;;;7.47;78.55
54900;BME280;40801;41.924;25.562;2024-02-21T00:39:31;100286.50;;;7.44;78.33
54900;BME280;40801;41.924;25.562;2024-02-21T00:41:56;100291.88;;;7.44;78.73
54900;BME280;40801;41.924;25.562;2024-02-21T00:44:21;100299.06;;;7.34;78.60
54900;BME280;40801;41.924;25.562;2024-02-21T00:46:47;100290.81;;;7.45;78.34
54900;BME280;40801;41.924;25.562;2024-02-21T00:49:12;100293.28;;;7.52;77.19
54900;BME280;40801;41.924;25.562;2024-02-21T00:51:38;100293.47;;;7.45;78.26
54900;BME280;40801;41.924;25.562;2024-02-21T00:54:03;100294.84;;;7.48;77.56
54900;BME280;40801;41.924;25.562;2024-02-21T00:56:29;100296.19;;;7.51;77.44
54900;BME280;40801;41.924;25.562;2024-02-21T00:58:55;100284.44;;;7.57;77.36
54900;BME280;40801;41.924;25.562;2024-02-21T01:01:22;100273.66;;;7.52;77.00
54900;BME280;40801;41.924;25.562;2024-02-21T01:03:49;100273.41;;;7.53;77.67
54900;BME280;40801;41.924;25.562;2024-02-21T01:06:14;100276.38;;;7.62;77.22
54900;BME280;40801;41.924;25.562;2024-02-21T01:08:39;100282.56;;;7.57;77.63
54900;BME280;40801;41.924;25.562;2024-02-21T01:11:05;100272.06;;;7.56;78.11
54900;BME280;40801;41.924;25.562;2024-02-21T01:13:30;100272.88;;;7.56;77.68
54900;BME280;40801;41.924;25.562;2024-02-21T01:15:55;100275.06;;;7.64;76.88
54900;BME280;40801;41.924;25.562;2024-02-21T01:18:21;100281.75;;;7.62;77.85
54900;BME280;40801;41.924;25.562;2024-02-21T01:20:46;100275.84;;;7.60;77.88
54900;BME280;40801;41.924;25.562;2024-02-21T01:23:11;100273.16;;;7.55;77.62
54900;BME280;40801;41.924;25.562;2024-02-21T01:25:37;100278.47;;;7.50;77.69
54900;BME280;40801;41.924;25.562;2024-02-21T01:28:02;100264.75;;;7.41;78.21
54900;BME280;40801;41.924;25.562;2024-02-21T01:30:28;100267.25;;;7.53;77.98
54900;BME280;40801;41.924;25.562;2024-02-21T01:32:53;100276.91;;;7.54;77.61
54900;BME280;40801;41.924;25.562;2024-02-21T01:35:19;100269.94;;;7.63;77.49
54900;BME280;40801;41.924;25.562;2024-02-21T01:37:44;100268.06;;;7.63;77.18
54900;BME280;40801;41.924;25.562;2024-02-21T01:40:10;100261.66;;;7.69;76.54
54900;BME280;40801;41.924;25.562;2024-02-21T01:42:39;100263.53;;;7.79;76.21
54900;BME280;40801;41.924;25.562;2024-02-21T01:45:08;100256.88;;;7.82;76.10
54900;BME280;40801;41.924;25.562;2024-02-21T01:47:34;100257.41;;;7.84;76.08
54900;BME280;40801;41.924;25.562;2024-02-21T01:50:00;100260.09;;;7.84;75.67
54900;BME280;40801;41.924;25.562;2024-02-21T01:52:28;100253.66;;;7.85;76.07
54900;BME280;40801;41.924;25.562;2024-02-21T01:54:53;100254.41;;;7.80;76.59
54900;BME280;40801;41.924;25.562;2024-02-21T01:57:19;100252.78;;;7.79;77.14
54900;BME280;40801;41.924;25.562;2024-02-21T01:59:44;100260.34;;;7.82;77.00
54900;BME280;40801;41.924;25.562;2024-02-21T02:02:09;100259.25;;;7.78;76.77
54900;BME280;40801;41.924;25.562;2024-02-21T02:04:37;100259.50;;;7.71;76.95
54900;BME280;40801;41.924;25.562;2024-02-21T02:07:06;100254.66;;;7.68;77.49
54900;BME280;40801;41.924;25.562;2024-02-21T02:09:31;100253.03;;;7.67;77.49
54900;BME280;40801;41.924;25.562;2024-02-21T02:11:57;100260.03;;;7.63;78.59
54900;BME280;40801;41.924;25.562;2024-02-21T02:14:24;100247.41;;;7.69;78.08
54900;BME280;40801;41.924;25.562;2024-02-21T02:16:50;100248.22;;;7.74;77.21
54900;BME280;40801;41.924;25.562;2024-02-21T02:19:15;100247.41;;;7.69;77.46
54900;BME280;40801;41.924;25.562;2024-02-21T02:21:49;100252.78;;;7.69;77.21
54900;BME280;40801;41.924;25.562;2024-02-21T02:24:20;100252.16;;;7.52;79.11
54900;BME280;40801;41.924;25.562;2024-02-21T02:26:47;100249.00;;;7.55;78.80
54900;BME280;40801;41.924;25.562;2024-02-21T02:29:12;100242.81;;;7.59;78.67
54900;BME280;40801;41.924;25.562;2024-02-21T02:31:38;100246.84;;;7.57;78.20
54900;BME280;40801;41.924;25.562;2024-02-21T02:34:03;100249.50;;;7.52;78.49
54900;BME280;40801;41.924;25.562;2024-02-21T02:36:32;100244.66;;;7.49;78.82
54900;BME280;40801;41.924;25.562;2024-02-21T02:38:58;100244.63;;;7.38;79.40
54900;BME280;40801;41.924;25.562;2024-02-21T02:41:23;100250.53;;;7.45;78.75
54900;BME280;40801;41.924;25.562;2024-02-21T02:43:48;100258.34;;;7.47;78.46
54900;BME280;40801;41.924;25.562;2024-02-21T02:46:14;100255.44;;;7.54;77.85
54900;BME280;40801;41.924;25.562;2024-02-21T02:48:39;100255.13;;;7.50;77.34
54900;BME280;40801;41.924;25.562;2024-02-21T02:51:05;100254.63;;;7.58;77.40
54900;BME280;40801;41.924;25.562;2024-02-21T02:53:30;100247.94;;;7.61;76.81
54900;BME280;40801;41.924;25.562;2024-02-21T02:55:55;100238.81;;;7.62;76.50
54900;BME280;40801;41.924;25.562;2024-02-21T02:58:21;100246.06;;;7.66;76.54
54900;BME280;40801;41.924;25.562;2024-02-21T03:00:46;100232.34;;;7.58;76.46
54900;BME280;40801;41.924;25.562;2024-02-21T03:03:12;100230.69;;;7.52;77.31
54900;BME280;40801;41.924;25.562;2024-02-21T03:05:37;100241.16;;;7.48;78.13
54900;BME280;40801;41.924;25.562;2024-02-21T03:08:03;100236.31;;;7.45;78.06
54900;BME280;40801;41.924;25.562;2024-02-21T03:10:35;100241.94;;;7.43;77.94
54900;BME280;40801;41.924;25.562;2024-02-21T03:13:00;100244.63;;;7.43;77.94
54900;BME280;40801;41.924;25.562;2024-02-21T03:15:26;100236.84;;;7.37;78.23
54900;BME280;40801;41.924;25.562;2024-02-21T03:17:51;100252.13;;;7.36;77.12
54900;BME280;40801;41.924;25.562;2024-02-21T03:20:17;100246.47;;;7.28;77.82
54900;BME280;40801;41.924;25.562;2024-02-21T03:22:44;100255.31;;;7.28;77.79
54900;BME280;40801;41.924;25.562;2024-02-21T03:25:09;100246.22;;;7.34;77.15
54900;BME280;40801;41.924;25.562;2024-02-21T03:27:39;100253.72;;;7.32;77.98
54900;BME280;40801;41.924;25.562;2024-02-21T03:30:05;100252.63;;;7.23;78.66
54900;BME280;40801;41.924;25.562;2024-02-21T03:32:30;100249.16;;;7.28;78.03
54900;BME280;40801;41.924;25.562;2024-02-21T03:34:56;100252.66;;;7.33;78.05
54900;BME280;40801;41.924;25.562;2024-02-21T03:37:21;100243.84;;;7.43;77.58
54900;BME280;40801;41.924;25.562;2024-02-21T03:39:47;100243.03;;;7.47;76.73
54900;BME280;40801;41.924;25.562;2024-02-21T03:42:12;100248.13;;;7.49;76.45
54900;BME280;40801;41.924;25.562;2024-02-21T03:44:38;100243.56;;;7.39;77.47
54900;BME280;40801;41.924;25.562;2024-02-21T03:47:04;100244.88;;;7.37;77.51
54900;BME280;40801;41.924;25.562;2024-02-21T03:49:29;100245.94;;;7.31;78.10
54900;BME280;40801;41.924;25.562;2024-02-21T03:51:55;100256.34;;;7.22;78.07
54900;BME280;40801;41.924;25.562;2024-02-21T03:54:20;100257.47;;;7.26;78.01
54900;BME280;40801;41.924;25.562;2024-02-21T03:56:46;100261.78;;;7.32;77.73
54900;BME280;40801;41.924;25.562;2024-02-21T03:59:14;100262.84;;;7.36;77.21
54900;BME280;40801;41.924;25.562;2024-02-21T04:01:39;100258.56;;;7.35;77.00
54900;BME280;40801;41.924;25.562;2024-02-21T04:04:05;100255.88;;;7.30;77.20
54900;BME280;40801;41.924;25.562;2024-02-21T04:06:30;100253.97;;;7.26;77.58
54900;BME280;40801;41.924;25.562;2024-02-21T04:08:56;100249.34;;;7.16;78.16
54900;BME280;40801;41.924;25.562;2024-02-21T04:11:22;100258.44;;;7.10;78.94
54900;BME280;40801;41.924;25.562;2024-02-21T04:13:47;100259.75;;;7.07;78.76
54900;BME280;40801;41.924;25.562;2024-02-21T04:16:15;100265.41;;;7.11;78.42
54900;BME280;40801;41.924;25.562;2024-02-21T04:18:41;100265.41;;;7.11;78.40
54900;BME280;40801;41.924;25.562;2024-02-21T04:21:06;100269.72;;;7.12;78.92
54900;BME280;40801;41.924;25.562;2024-02-21T04:23:31;100267.59;;;7.19;78.28
54900;BME280;40801;41.924;25.562;2024-02-21T04:25:57;100270.56;;;7.23;77.74
54900;BME280;40801;41.924;25.562;2024-02-21T04:28:22;100274.09;;;7.23;78.17
54900;BME280;40801;41.924;25.562;2024-02-21T04:30:47;100269.53;;;7.29;78.81
54900;BME280;40801;41.924;25.562;2024-02-21T04:33:13;100273.03;;;7.29;78.58
54900;BME280;40801;41.924;25.562;2024-02-21T04:35:38;100269.00;;;7.32;78.42
54900;BME280;40801;41.924;25.562;2024-02-21T04:38:04;100265.53;;;7.36;78.25
54900;BME280;40801;41.924;25.562;2024-02-21T04:40:30;100267.44;;;7.41;78.03
54900;BME280;40801;41.924;25.562;2024-02-21T04:42:56;100268.50;;;7.40;77.91
54900;BME280;40801;41.924;25.562;2024-02-21T04:45:22;100270.66;;;7.38;77.68
54900;BME280;40801;41.924;25.562;2024-02-21T04:47:47;100270.38;;;7.39;77.81
54900;BME280;40801;41.924;25.562;2024-02-21T04:50:12;100261.78;;;7.32;78.03
54900;BME280;40801;41.924;25.562;2024-02-21T04:52:38;100259.34;;;7.31;77.97
54900;BME280;40801;41.924;25.562;2024-02-21T04:55:03;100259.09;;;7.32;77.43
54900;BME280;40801;41.924;25.562;2024-02-21T04:57:29;100267.66;;;7.24;78.35
54900;BME280;40801;41.924;25.562;2024-02-21T04:59:54;100275.09;;;7.17;77.80
54900;BME280;40801;41.924;25.562;2024-02-21T05:02:20;100273.19;;;7.12;79.04
54900;BME280;40801;41.924;25.562;2024-02-21T05:04:47;100274.81;;;7.13;78.06
54900;BME280;40801;41.924;25.562;2024-02-21T05:07:13;100279.91;;;7.15;78.31
54900;BME280;40801;41.924;25.562;2024-02-21T05:09:38;100288.78;;;7.21;77.16
54900;BME280;40801;41.924;25.562;2024-02-21T05:12:04;100286.09;;;7.21;77.67
54900;BME280;40801;41.924;25.562;2024-02-21T05:14:29;100289.09;;;7.24;77.01
54900;BME280;40801;41.924;25.562;2024-02-21T05:16:55;100282.41;;;7.27;77.95
54900;BME280;40801;41.924;25.562;2024-02-21T05:19:20;100297.38;;;7.23;78.02
54900;BME280;40801;41.924;25.562;2024-02-21T05:21:46;100297.38;;;7.18;78.42
54900;BME280;40801;41.924;25.562;2024-02-21T05:24:11;100300.81;;;7.13;78.60
54900;BME280;40801;41.924;25.562;2024-02-21T05:26:37;100307.78;;;7.09;78.39
54900;BME280;40801;41.924;25.562;2024-02-21T05:29:02;100308.03;;;7.07;78.87
54900;BME280;40801;41.924;25.562;2024-02-21T05:31:54;100307.78;;;7.09;78.34
54900;BME280;40801;41.924;25.562;2024-02-21T05:34:21;100314.75;;;7.10;78.37
54900;BME280;40801;41.924;25.562;2024-02-21T05:36:47;100312.63;;;7.12;78.41
54900;BME280;40801;41.924;25.562;2024-02-21T05:39:14;100312.13;;;7.20;78.47
54900;BME280;40801;41.924;25.562;2024-02-21T05:41:40;100310.50;;;7.14;78.51
54900;BME280;40801;41.924;25.562;2024-02-21T05:44:05;100318.28;;;7.15;79.50
54900;BME280;40801;41.924;25.562;2024-02-21T05:46:31;100322.56;;;7.17;79.61
54900;BME280;40801;41.924;25.562;2024-02-21T05:48:57;100313.25;;;7.24;79.32
54900;BME280;40801;41.924;25.562;2024-02-21T05:51:22;100320.81;;;7.32;79.42
54900;BME280;40801;41.924;25.562;2024-02-21T05:53:47;100324.84;;;7.40;79.86
54900;BME280;40801;41.924;25.562;2024-02-21T05:56:14;100324.41;;;7.53;78.80
54900;BME280;40801;41.924;25.562;2024-02-21T05:58:39;100320.97;;;7.68;77.80
54900;BME280;40801;41.924;25.562;2024-02-21T06:01:05;100320.72;;;7.80;77.94
54900;BME280;40801;41.924;25.562;2024-02-21T06:03:33;100326.44;;;7.88;77.14
54900;BME280;40801;41.924;25.562;2024-02-21T06:05:59;100329.38;;;7.92;76.68
54900;BME280;40801;41.924;25.562;2024-02-21T06:08:24;100329.94;;;7.94;76.91
54900;BME280;40801;41.924;25.562;2024-02-21T06:10:50;100331.56;;;8.00;77.01
54900;BME280;40801;41.924;25.562;2024-02-21T06:13:23;100330.75;;;7.99;76.98
54900;BME280;40801;41.924;25.562;2024-02-21T06:15:49;100338.53;;;8.06;77.66
54900;BME280;40801;41.924;25.562;2024-02-21T06:18:17;100332.63;;;8.04;77.25
54900;BME280;40801;41.924;25.562;2024-02-21T06:20:42;100329.94;;;8.04;77.65
54900;BME280;40801;41.924;25.562;2024-02-21T06:23:08;100332.69;;;8.14;77.06
54900;BME280;40801;41.924;25.562;2024-02-21T06:25:34;100339.94;;;8.19;77.21
54900;BME280;40801;41.924;25.562;2024-02-21T06:27:59;100343.97;;;8.26;77.37
54900;BME280;40801;41.924;25.562;2024-02-21T06:30:24;100337.00;;;8.30;77.03
54900;BME280;40801;41.924;25.562;2024-02-21T06:32:50;100334.84;;;8.32;77.45
54900;BME280;40801;41.924;25.562;2024-02-21T06:35:15;100337.06;;;8.41;76.69
54900;BME280;40801;41.924;25.562;2024-02-21T06:37:42;100340.00;;;8.34;76.97
54900;BME280;40801;41.924;25.562;2024-02-21T06:40:07;100342.72;;;8.39;77.41
54900;BME280;40801;41.924;25.562;2024-02-21T06:42:33;100342.72;;;8.44;77.04
54900;BME280;40801;41.924;25.562;2024-02-21T06:44:58;100350.50;;;8.46;76.80
54900;BME280;40801;41.924;25.562;2024-02-21T06:47:24;100355.34;;;8.44;76.80
54900;BME280;40801;41.924;25.562;2024-02-21T06:49:50;100343.53;;;8.50;76.62
54900;BME280;40801;41.924;25.562;2024-02-21T06:52:17;100345.41;;;8.59;76.16
54900;BME280;40801;41.924;25.562;2024-02-21T06:54:45;100345.13;;;8.56;76.30
54900;BME280;40801;41.924;25.562;2024-02-21T06:57:11;100350.50;;;8.61;76.43
54900;BME280;40801;41.924;25.562;2024-02-21T06:59:36;100345.41;;;8.64;76.19
54900;BME280;40801;41.924;25.562;2024-02-21T07:02:02;100347.56;;;8.57;76.91
54900;BME280;40801;41.924;25.562;2024-02-21T07:04:27;100346.22;;;8.75;76.38
54900;BME280;40801;41.924;25.562;2024-02-21T07:06:54;100344.06;;;8.77;76.62
54900;BME280;40801;41.924;25.562;2024-02-21T07:09:20;100346.50;;;8.74;76.42
54900;BME280;40801;41.924;25.562;2024-02-21T07:11:45;100353.47;;;8.85;76.35
54900;BME280;40801;41.924;25.562;2024-02-21T07:14:11;100347.84;;;8.96;75.70
54900;BME280;40801;41.924;25.562;2024-02-21T07:16:36;100346.19;;;9.16;74.82
54900;BME280;40801;41.924;25.562;2024-02-21T07:19:02;100350.22;;;9.23;74.10
54900;BME280;40801;41.924;25.562;2024-02-21T07:21:28;100348.06;;;9.20;74.00
54900;BME280;40801;41.924;25.562;2024-02-21T07:23:53;100347.53;;;9.28;74.01
54900;BME280;40801;41.924;25.562;2024-02-21T07:26:18;100351.81;;;9.35;73.69
54900;BME280;40801;41.924;25.562;2024-02-21T07:28:44;100358.78;;;9.51;73.92
54900;BME280;40801;41.924;25.562;2024-02-21T07:31:09;100361.94;;;9.73;73.23
54900;BME280;40801;41.924;25.562;2024-02-21T07:33:35;100355.19;;;9.86;71.91
54900;BME280;40801;41.924;25.562;2024-02-21T07:36:01;100353.44;;;10.05;71.88
54900;BME280;40801;41.924;25.562;2024-02-21T07:38:26;100349.06;;;10.19;70.62
54900;BME280;40801;41.924;25.562;2024-02-21T07:40:51;100356.59;;;10.28;70.72
54900;BME280;40801;41.924;25.562;2024-02-21T07:43:17;100359.19;;;10.48;69.79
54900;BME280;40801;41.924;25.562;2024-02-21T07:45:42;100352.53;;;10.69;69.42
54900;BME280;40801;41.924;25.562;2024-02-21T07:48:08;100352.44;;;10.84;69.04
54900;BME280;40801;41.924;25.562;2024-02-21T07:50:33;100355.81;;;11.00;68.31
54900;BME280;40801;41.924;25.562;2024-02-21T07:52:59;100351.69;;;11.37;67.82
54900;BME280;40801;41.924;25.562;2024-02-21T07:55:24;100349.72;;;11.42;66.89
54900;BME280;40801;41.924;25.562;2024-02-21T07:57:49;100350.75;;;11.46;67.00
54900;BME280;40801;41.924;25.562;2024-02-21T08:00:16;100358.19;;;11.36;66.94
54900;BME280;40801;41.924;25.562;2024-02-21T08:02:48;100357.00;;;11.18;66.43
54900;BME280;40801;41.924;25.562;2024-02-21T08:05:13;100362.84;;;11.30;67.23
54900;BME280;40801;41.924;25.562;2024-02-21T08:07:39;100353.63;;;11.55;66.53
54900;BME280;40801;41.924;25.562;2024-02-21T08:10:05;100360.22;;;11.97;66.21
54900;BME280;40801;41.924;25.562;2024-02-21T08:12:33;100353.38;;;12.23;65.10
54900;BME280;40801;41.924;25.562;2024-02-21T08:14:58;100355.13;;;12.33;64.69
54900;BME280;40801;41.924;25.562;2024-02-21T08:17:24;100349.72;;;12.33;63.14
54900;BME280;40801;41.924;25.562;2024-02-21T08:19:49;100349.13;;;12.36;63.22
54900;BME280;40801;41.924;25.562;2024-02-21T08:22:15;100361.09;;;12.67;62.06
54900;BME280;40801;41.924;25.562;2024-02-21T08:24:40;100356.69;;;12.71;61.49
54900;BME280;40801;41.924;25.562;2024-02-21T08:27:05;100350.72;;;12.75;62.07
54900;BME280;40801;41.924;25.562;2024-02-21T08:29:31;100357.59;;;12.99;61.04
54900;BME280;40801;41.924;25.562;2024-02-21T08:31:56;100355.78;;;12.95;60.93
54900;BME280;40801;41.924;25.562;2024-02-21T08:34:22;100346.66;;;12.91;60.89
54900;BME280;40801;41.924;25.562;2024-02-21T08:36:47;100353.16;;;12.90;60.44
54900;BME280;40801;41.924;25.562;2024-02-21T08:39:13;100364.97;;;12.80;60.28
54900;BME280;40801;41.924;25.562;2024-02-21T08:41:42;100356.06;;;13.12;60.54
54900;BME280;40801;41.924;25.562;2024-02-21T08:44:07;100359.94;;;14.07;60.44
54900;BME280;40801;41.924;25.562;2024-02-21T08:46:33;100351.53;;;15.12;59.24
54900;BME280;40801;41.924;25.562;2024-02-21T08:48:59;100363.53;;;15.73;56.91
54900;BME280;40801;41.924;25.562;2024-02-21T08:51:24;100360.44;;;16.40;54.93
54900;BME280;40801;41.924;25.562;2024-02-21T08:53:50;100360.81;;;16.82;52.72
54900;BME280;40801;41.924;25.562;2024-02-21T08:56:16;100362.25;;;16.88;51.34
54900;BME280;40801;41.924;25.562;2024-02-21T08:58:42;100360.31;;;16.88;51.88
54900;BME280;40801;41.924;25.562;2024-02-21T09:01:08;100358.56;;;17.86;50.56
54900;BME280;40801;41.924;25.562;2024-02-21T09:03:37;100354.59;;;18.34;47.95
54900;BME280;40801;41.924;25.562;2024-02-21T09:06:04;100358.88;;;18.64;45.90
54900;BME280;40801;41.924;25.562;2024-02-21T09:08:29;100345.16;;;19.30;44.89
54900;BME280;40801;41.924;25.562;2024-02-21T09:10:55;100341.97;;;19.16;43.75
54900;BME280;40801;41.924;25.562;2024-02-21T09:13:20;100345.03;;;19.72;42.73
54900;BME280;40801;41.924;25.562;2024-02-21T09:15:47;100349.22;;;20.06;40.71
54900;BME280;40801;41.924;25.562;2024-02-21T09:18:12;100341.50;;;20.48;39.36
54900;BME280;40801;41.924;25.562;2024-02-21T09:20:38;100339.06;;;20.06;40.16
54900;BME280;40801;41.924;25.562;2024-02-21T09:23:03;100347.34;;;20.75;39.05
54900;BME280;40801;41.924;25.562;2024-02-21T09:25:28;100338.06;;;20.39;39.56
54900;BME280;40801;41.924;25.562;2024-02-21T09:27:54;100342.38;;;20.64;39.13
54900;BME280;40801;41.924;25.562;2024-02-21T09:30:20;100338.88;;;20.39;39.28
54900;BME280;40801;41.924;25.562;2024-02-21T09:32:46;100339.34;;;21.57;37.25
54900;BME280;40801;41.924;25.562;2024-02-21T09:35:11;100332.13;;;22.00;36.06
54900;BME280;40801;41.924;25.562;2024-02-21T09:37:38;100335.22;;;22.33;35.32
54900;BME280;40801;41.924;25.562;2024-02-21T09:40:04;100338.34;;;22.32;34.86
54900;BME280;40801;41.924;25.562;2024-02-21T09:42:41;100334.00;;;22.50;34.18
54900;BME280;40801;41.924;25.562;2024-02-21T09:45:22;100336.59;;;23.01;32.03
54900;BME280;40801;41.924;25.562;2024-02-21T09:50:36;100320.44;;;23.68;33.65
54900;BME280;40801;41.924;25.562;2024-02-21T09:53:04;100324.00;;;22.80;32.89
54900;BME280;40801;41.924;25.562;2024-02-21T09:55:33;100330.75;;;23.48;32.79
54900;BME280;40801;41.924;25.562;2024-02-21T09:58:01;100311.34;;;23.90;32.63
54900;BME280;40801;41.924;25.562;2024-02-21T10:00:26;100316.50;;;23.42;33.13
54900;BME280;40801;41.924;25.562;2024-02-21T10:02:53;100315.63;;;24.14;32.27
54900;BME280;40801;41.924;25.562;2024-02-21T10:05:19;100313.72;;;24.48;31.87
54900;BME280;40801;41.924;25.562;2024-02-21T10:07:44;100312.34;;;24.31;31.10
54900;BME280;40801;41.924;25.562;2024-02-21T10:10:10;100307.81;;;22.56;32.46
54900;BME280;40801;41.924;25.562;2024-02-21T10:12:36;100315.88;;;21.28;33.78
54900;BME280;40801;41.924;25.562;2024-02-21T10:15:05;100322.47;;;20.27;34.86
54900;BME280;40801;41.924;25.562;2024-02-21T10:17:34;100321.69;;;20.15;35.46
54900;BME280;40801;41.924;25.562;2024-02-21T10:20:12;100311.22;;;19.31;36.33
54900;BME280;40801;41.924;25.562;2024-02-21T10:22:39;100310.88;;;19.21;37.07
54900;BME280;40801;41.924;25.562;2024-02-21T10:25:12;100309.72;;;19.34;36.65
54900;BME280;40801;41.924;25.562;2024-02-21T10:27:40;100296.56;;;18.91;36.26
54900;BME280;40801;41.924;25.562;2024-02-21T10:30:13;100298.56;;;18.27;36.71
54900;BME280;40801;41.924;25.562;2024-02-21T10:32:52;100299.38;;;18.28;37.10
54900;BME280;40801;41.924;25.562;2024-02-21T10:37:54;100286.16;;;18.51;37.51
54900;BME280;40801;41.924;25.562;2024-02-21T10:40:25;100284.69;;;17.61;37.81
54900;BME280;40801;41.924;25.562;2024-02-21T10:42:57;100278.41;;;16.93;38.39
54900;BME280;40801;41.924;25.562;2024-02-21T10:45:29;100266.25;;;16.73;39.34
54900;BME280;40801;41.924;25.562;2024-02-21T10:48:01;100264.50;;;16.60;39.51
54900;BME280;40801;41.924;25.562;2024-02-21T10:50:32;100262.25;;;16.71;39.22
54900;BME280;40801;41.924;25.562;2024-02-21T10:56:30;100247.38;;;19.03;34.98
54900;BME280;40801;41.924;25.562;2024-02-21T10:59:00;100246.03;;;20.50;34.50
54900;BME280;40801;41.924;25.562;2024-02-21T11:01:26;100226.50;;;21.62;33.06
54900;BME280;40801;41.924;25.562;2024-02-21T11:03:55;100231.72;;;22.83;31.77
54900;BME280;40801;41.924;25.562;2024-02-21T11:06:22;100228.94;;;23.78;29.78
54900;BME280;40801;41.924;25.562;2024-02-21T11:09:08;100215.44;;;24.66;26.71
54900;BME280;40801;41.924;25.562;2024-02-21T11:11:38;100224.63;;;25.22;27.69
54900;BME280;40801;41.924;25.562;2024-02-21T11:14:11;100212.25;;;26.43;25.22
54900;BME280;40801;41.924;25.562;2024-02-21T11:16:41;100210.13;;;26.05;25.53
54900;BME280;40801;41.924;25.562;2024-02-21T11:19:18;100204.63;;;26.19;26.03
54900;BME280;40801;41.924;25.562;2024-02-21T11:21:44;100201.38;;;25.96;26.63
54900;BME280;40801;41.924;25.562;2024-02-21T11:24:10;100191.31;;;25.59;25.31
54900;BME280;40801;41.924;25.562;2024-02-21T11:26:39;100187.56;;;25.99;23.28
54900;BME280;40801;41.924;25.562;2024-02-21T11:29:07;100185.72;;;26.32;24.44
54900;BME280;40801;41.924;25.562;2024-02-21T11:31:44;100182.25;;;26.84;21.79
54900;BME280;40801;41.924;25.562;2024-02-21T11:34:11;100174.81;;;25.70;22.46
54900;BME280;40801;41.924;25.562;2024-02-21T11:36:46;100178.16;;;26.07;19.54
54900;BME280;40801;41.924;25.562;2024-02-21T11:39:17;100177.75;;;26.09;22.61
54900;BME280;40801;41.924;25.562;2024-02-21T11:41:42;100170.41;;;26.98;21.48
54900;BME280;40801;41.924;25.562;2024-02-21T11:44:08;100168.19;;;25.88;21.80
54900;BME280;40801;41.924;25.562;2024-02-21T11:46:33;100165.47;;;25.99;21.34
54900;BME280;40801;41.924;25.562;2024-02-21T11:48:59;100170.59;;;24.77;22.16
54900;BME280;40801;41.924;25.562;2024-02-21T11:51:27;100175.47;;;23.26;24.09
54900;BME280;40801;41.924;25.562;2024-02-21T11:53:53;100166.94;;;23.61;24.13
54900;BME280;40801;41.924;25.562;2024-02-21T11:56:19;100168.75;;;24.14;24.26
54900;BME280;40801;41.924;25.562;2024-02-21T11:58:49;100165.00;;;24.69;24.36
54900;BME280;40801;41.924;25.562;2024-02-21T12:01:14;100153.78;;;25.47;22.59
54900;BME280;40801;41.924;25.562;2024-02-21T12:03:40;100150.00;;;25.80;22.78
54900;BME280;40801;41.924;25.562;2024-02-21T12:06:07;100148.91;;;26.06;23.24
54900;BME280;40801;41.924;25.562;2024-02-21T12:08:45;100142.72;;;26.66;20.65
54900;BME280;40801;41.924;25.562;2024-02-21T12:11:21;100140.72;;;27.24;20.56
54900;BME280;40801;41.924;25.562;2024-02-21T12:14:02;100140.34;;;27.04;20.25
54900;BME280;40801;41.924;25.562;2024-02-21T12:16:30;100139.88;;;26.31;21.53
54900;BME280;40801;41.924;25.562;2024-02-21T12:19:00;100132.19;;;25.01;21.60
54900;BME280;40801;41.924;25.562;2024-02-21T12:21:30;100129.66;;;25.44;22.45
54900;BME280;40801;41.924;25.562;2024-02-21T12:23:58;100133.53;;;26.16;21.76
54900;BME280;40801;41.924;25.562;2024-02-21T12:26:23;100126.72;;;25.74;21.98
54900;BME280;40801;41.924;25.562;2024-02-21T12:28:49;100133.13;;;26.03;22.19
54900;BME280;40801;41.924;25.562;2024-02-21T12:31:14;100128.81;;;26.31;21.19
54900;BME280;40801;41.924;25.562;2024-02-21T12:33:42;100122.16;;;26.57;20.99
54900;BME280;40801;41.924;25.562;2024-02-21T12:36:07;100122.53;;;27.08;20.69
54900;BME280;40801;41.924;25.562;2024-02-21T12:38:34;100121.34;;;26.81;19.89
54900;BME280;40801;41.924;25.562;2024-02-21T12:41:00;100128.25;;;25.72;20.62
54900;BME280;40801;41.924;25.562;2024-02-21T12:43:26;100119.06;;;25.46;21.09
54900;BME280;40801;41.924;25.562;2024-02-21T12:45:52;100119.22;;;25.09;21.72
54900;BME280;40801;41.924;25.562;2024-02-21T12:48:18;100125.38;;;24.44;21.65
54900;BME280;40801;41.924;25.562;2024-02-21T12:50:50;100122.88;;;23.35;22.03